Tiempo atmosférico en la estación meteorológica de Pollença, Illes Balears (45 m.)



Fecha
DESCASC
Temp. máxima en grados centígrados (hora)
DESCASC
Temp. mínima en grados centígrados (hora)
DESCASC
Temp. media en grados centígrados
DESCASC
Racha de viento máxima en m/sg (hora)
DESCASC
Velocidad máxima media en intervalos de 10 minutos(hora)
DESCASC
Precipitaciones diarias en mm
DESCASC
Precipitaciones de 00:00 a 06:00 en mm
DESCASC
Precipitaciones de 06:00 a 12:00 en mm
DESCASC
Precipitaciones de 12:00 a 18:00 en mm
DESCASC
Precipitaciones de 18:00 a 24:00 en mm
DESCASC
31-03-2020 15.7 (12:50) 11.1 (00:30) 13.4 8.33 (11:10) 3.33 (15:50) 5 0 0 5 0
30-03-2020 15.2 (17:10) 6.9 (05:50) 11 4.17 (22:00) 1.67 (17:20) 10.4 0 0 10.4 0
29-03-2020 21.3 (17:10) 6.6 (00:00) 13.9 6.67 (15:10) 3.89 (15:00) 0 0 0 0 0
28-03-2020 17 (14:40) 9.4 (00:00) 13.2 6.11 (07:20) 3.33 (14:30) 5.8 1.2 4.6 0 0
27-03-2020 15.4 (14:50) 3.6 (00:00) 9.5 7.78 (12:30) 3.61 (14:00) 0.2 0 0 0.2 0
26-03-2020 11.7 (10:40) 3.6 (00:00) 7.6 6.94 (11:00) 3.89 (11:00) 17.6 0 3.6 5 9
25-03-2020 14.4 (10:40) 5.6 (00:00) 10 10 (14:00) 5 (07:20) 0 0 0 0 0
24-03-2020 15.7 (14:40) 10 (00:00) 12.8 11.39 (16:10) 5.28 (16:00) 0 0 0 0 0
23-03-2020 19.4 (11:40) 9.7 (00:00) 14.5 7.78 (16:50) 4.17 (13:20) 0.2 0 0 0.2 0
22-03-2020 15.7 (15:50) 10 (03:40) 12.8 7.5 (21:40) 3.06 (08:00) 18.2 0 14.8 3.4 0
21-03-2020 18.8 (10:40) 12 (00:00) 15.4 7.5 (11:20) 3.33 (13:50) 0 0 0 0 0
20-03-2020 17.8 (12:40) 8.3 (00:00) 13 8.06 (13:20) 4.17 (14:10) 0 0 0 0 0
19-03-2020 17.7 (14:40) 9 (00:00) 13.4 6.67 (14:00) 3.61 (17:00) 0 0 0 0 0
18-03-2020 17.2 (14:30) 11.2 (00:00) 14.2 5.56 (12:00) 2.78 (12:00) 0 0 0 0 0
17-03-2020 16.9 (12:10) 13.2 (00:00) 15 9.17 (12:40) 3.33 (14:20) 0.2 0.2 0 0 0
16-03-2020 17.5 (16:10) 10.2 (00:00) 13.8 9.17 (10:00) 3.61 (16:40) 0.4 0 0.4 0 0
15-03-2020 20.2 (12:30) 7.3 (00:00) 13.8 6.67 (12:50) 3.89 (13:00) 0 0 0 0 0
14-03-2020 19.9 (13:50) 8.9 (00:00) 14.4 5.28 (11:50) 2.5 (15:30) 0.8 0.8 0 0 0
13-03-2020 19.3 (12:30) 9.2 (02:50) 14.2 7.22 (13:50) 3.89 (15:00) 0 0 0 0 0
12-03-2020 26.7 (13:30) 7.3 (00:00) 17 5.56 (13:40) 3.89 (14:20) 0 0 0 0 0
11-03-2020 23.8 (14:40) 6.4 (00:00) 15.1 4.72 (15:10) 3.06 (15:00) 0 0 0 0 0
10-03-2020 21.1 (14:50) 9.5 (00:00) 15.3 6.67 (13:40) 3.61 (13:20) 0 0 0 0 0
09-03-2020 17.2 (16:50) 6.8 (00:00) 12 13.33 (08:30) 6.11 (08:00) 0 0 0 0 0
08-03-2020 20.2 (14:40) 6.1 (00:00) 13.2 8.06 (15:40) 3.89 (15:50) 0 0 0 0 0
07-03-2020 16.2 (16:40) 6.4 (00:00) 11.3 15.56 (00:10) 6.11 (04:50) 0 0 0 0 0
06-03-2020 16.7 (00:00) 11.5 (00:00) 14.1 18.89 (11:20) 10.28 (15:20) 0 0 0 0 0
05-03-2020 24 (15:00) 8.4 (00:00) 16.2 16.94 (18:40) 8.61 (15:20) 0 0 0 0 0
04-03-2020 20.1 (17:10) 7 (00:00) 13.6 11.39 (00:10) 3.89 (13:40) 0 0 0 0 0

Gráficas

Temp. máximas Temp. mínimas Temp. medias Precipitaciones Rachas de viento máximas Velocidades máximas media en intervalos de 10 minutos

Datos horarios

Fecha y hora oficial Temperatura (ºC) Velocidad del viento (km/h) Dirección del viento Racha (km/h) Dirección de racha Precipitación (mm) Presión (hPa) Tendencia (hPa) Humedad (%)
2020-04-02 23:00:00 12.1 6 Nordeste 24 Norte 0.2 -- -- 92
2020-04-02 22:00:00 12.7 6 Norte 36 Norte 0 -- -- 91
2020-04-02 21:00:00 12.6 6 Nordeste 23 Este 0 -- -- 94
2020-04-02 20:00:00 12.6 6 Nordeste 20 Norte 0.2 -- -- 94
2020-04-02 19:00:00 12.9 5 Este 23 Este 0 -- -- 93
2020-04-02 18:00:00 13.1 10 Este 25 Nordeste 0 -- -- 95
2020-04-02 17:00:00 13.4 0 Calma 8 Norte 1.8 -- -- 95
2020-04-02 16:00:00 12.7 5 Norte 32 Norte 3.2 -- -- 94
2020-04-02 15:00:00 13.1 10 Noroeste 26 Noroeste 1.4 -- -- 88
2020-04-02 14:00:00 16.2 5 Nordeste 15 Sudoeste 0 -- -- 77
2020-04-02 13:00:00 16.4 6 Norte 18 Norte 0 -- -- 75
2020-04-02 12:00:00 17 9 Norte 19 Norte 0 -- -- 70
2020-04-02 11:00:00 19.4 4 Sudeste 13 Sudeste 0 -- -- 71
2020-04-02 10:00:00 16.6 0 Calma 9 Oeste 0 -- -- 95
2020-04-02 09:00:00 11.3 4 Oeste 6 Oeste 0 -- -- 99
2020-04-02 08:00:00 9.3 0 Calma 3 Nordeste 0 -- -- 100
2020-04-02 07:00:00 9.1 0 Calma 4 Oeste 0 -- -- 100
2020-04-02 06:00:00 9.1 0 Calma 4 Noroeste 0 -- -- 100
2020-04-02 05:00:00 9.8 0 Calma 6 Noroeste 0 -- -- 100
2020-04-02 04:00:00 10.2 0 Calma 5 Oeste 0 -- -- 99
2020-04-02 03:00:00 10.6 0 Calma 6 Oeste 0 -- -- 99
2020-04-02 02:00:00 10.6 0 Calma 5 Noroeste 0 -- -- 99
2020-04-02 01:00:00 11.1 0 Calma 5 Nordeste 0 -- -- 99
2020-04-02 00:00:00 11.7 2 Nordeste 6 Noroeste 0 -- -- 98
2020-04-01 23:00:00 12.3 0 Calma 5 Nordeste 0 -- -- 96
2020-04-01 22:00:00 13.5 3 Noroeste 7 Norte 0 -- -- 96
2020-04-01 21:00:00 13.6 0 Calma 9 Sudoeste 0 -- -- 94
2020-04-01 20:00:00 15.7 5 Sudoeste 11 Sur 0 -- -- 85
2020-04-01 19:00:00 17 5 Norte 7 Norte 0 -- -- 84
2020-04-01 18:00:00 16.7 3 Sudoeste 15 Oeste 1.4 -- -- 90
2020-04-01 17:00:00 15.3 12 Oeste 23 Oeste 0.6 -- -- 88
2020-04-01 16:00:00 16.2 4 Noroeste 17 Sudoeste 0 -- -- 84
2020-04-01 15:00:00 17.1 6 Nordeste 12 Nordeste 1 -- -- 90
2020-04-01 14:00:00 15.1 10 Nordeste 22 Nordeste 1.2 -- -- 94
2020-04-01 13:00:00 17 13 Nordeste 24 Este 0 -- -- 82
2020-04-01 12:00:00 16.3 6 Este 19 Sudeste 0 -- -- 84
2020-04-01 11:00:00 15.8 8 Este 20 Sudeste 0 -- -- 85
2020-04-01 10:00:00 14.8 5 Nordeste 16 Este 0 -- -- 89
2020-04-01 09:00:00 14.5 5 Este 24 Este 0 -- -- 89
2020-04-01 08:00:00 14.4 6 Este 16 Este 0 -- -- 89
2020-04-01 07:00:00 14.2 5 Este 12 Este 0 -- -- 88
2020-04-01 06:00:00 13.7 3 Sudeste 10 Sudeste 0 -- -- 90
2020-04-01 05:00:00 13.7 3 Sudeste 16 Este 0 -- -- 90
2020-04-01 04:00:00 14.2 4 Sudeste 22 Sudeste 0 -- -- 87
2020-04-01 03:00:00 14.2 7 Este 23 Sudeste 0 -- -- 87
2020-04-01 02:00:00 14.3 7 Este 26 Este 0 -- -- 87
2020-04-01 01:00:00 14.3 8 Este 23 Este 0 -- -- 89
2020-04-01 00:00:00 14.2 5 Este 23 Sudeste 0 -- -- 89
2020-03-31 23:00:00 14 7 Este 28 Sudeste 0 -- -- 90
2020-03-31 22:00:00 13.9 6 Este 26 Este 0 -- -- 91
2020-03-31 21:00:00 14 6 Este 23 Este 0 -- -- 93
2020-03-31 20:00:00 14.1 7 Este 19 Este 0 -- -- 93
2020-03-31 19:00:00 14 5 Este 22 Nordeste 0 -- -- 95
2020-03-31 18:00:00 14.3 8 Este 15 Nordeste 0.6 -- -- 95
2020-03-31 17:00:00 13.9 9 Nordeste 15 Nordeste 3.8 -- -- 96
2020-03-31 16:00:00 14.5 6 Este 21 Este 0.6 -- -- 90
2020-03-31 15:00:00 15.6 7 Este 26 Este 0 -- -- 81
2020-03-31 14:00:00 15.7 7 Este 28 Nordeste 0 -- -- 81
2020-03-31 13:00:00 15.7 9 Este 27 Sudeste 0 -- -- 80
2020-03-31 12:00:00 14.9 8 Este 30 Este 0 -- -- 81
2020-03-31 11:00:00 14.9 9 Este 24 Este 0 -- -- 82
2020-03-31 10:00:00 14.1 5 Este 17 Sudeste 0 -- -- 86
2020-03-31 09:00:00 13.6 4 Este 14 Nordeste 0 -- -- 88
2020-03-31 08:00:00 13.3 6 Este 18 Este 0 -- -- 90
2020-03-31 07:00:00 13.1 6 Este 23 Este 0 -- -- 93
2020-03-31 06:00:00 13.1 7 Este 21 Nordeste 0 -- -- 96
2020-03-31 05:00:00 12.7 5 Este 15 Este 0 -- -- 99
2020-03-31 04:00:00 11.5 0 Calma 2 Nordeste 0 -- -- 98
2020-03-31 03:00:00 11.5 0 Calma 2 Nordeste 0 -- -- 98
2020-03-31 02:00:00 11.4 0 Calma 5 Sudoeste 0 -- -- 98
2020-03-31 01:00:00 11.3 0 Calma 5 Sudeste 0 -- -- 97
2020-03-31 00:00:00 11.4 0 Calma 4 Sur 0 -- -- 95
2020-03-30 23:00:00 12.7 2 Sudeste 13 Este 0 -- -- 93
2020-03-30 22:00:00 12.7 5 Sudeste 15 Sur 0 -- -- 97
2020-03-30 21:00:00 12.8 0 Calma 4 Sudoeste 0 -- -- 96
2020-03-30 20:00:00 13.6 2 Norte 4 Noroeste 0 -- -- 94
2020-03-30 19:00:00 14.6 2 Nordeste 5 Este 0 -- -- 90
2020-03-30 18:00:00 14.7 4 Nordeste 14 Norte 0 -- -- 89
2020-03-30 17:00:00 14.9 5 Norte 11 Norte 0.2 -- -- 87
2020-03-30 16:00:00 13.8 4 Noroeste 9 Norte 1.4 -- -- 92
2020-03-30 15:00:00 14.1 2 Sudeste 8 Este 1.6 -- -- 95
2020-03-30 14:00:00 13.8 0 Calma 6 Nordeste 5.4 -- -- 95
2020-03-30 13:00:00 13.4 3 Este 8 Norte 1.8 -- -- 93
2020-03-30 12:00:00 14.2 0 Calma 4 Sur 0 -- -- 83
2020-03-30 11:00:00 12.6 0 Calma 3 Sur 0 -- -- 82
2020-03-30 10:00:00 10.7 0 Calma 4 Sudeste 0 -- -- 92
2020-03-30 09:00:00 9.5 0 Calma 3 Nordeste 0 -- -- 95
2020-03-30 08:00:00 7.1 0 Calma 4 Nordeste 0 -- -- 94
2020-03-30 07:00:00 7.2 0 Calma 4 Sudeste 0 -- -- 95
2020-03-30 06:00:00 6.9 2 Norte 3 Norte 0 -- -- 92
2020-03-30 05:00:00 7.4 0 Calma 3 Norte 0 -- -- 90
2020-03-30 04:00:00 7.7 0 Calma 3 Norte 0 -- -- 87
2020-03-30 03:00:00 7.3 2 Norte 3 Norte 0 -- -- 90
2020-03-30 02:00:00 7.5 0 Calma 2 Nordeste 0 -- -- 89
2020-03-30 01:00:00 8.1 0 Calma 2 Norte 0 -- -- 87
2020-03-30 00:00:00 9.1 0 Calma 4 Norte 0 -- -- 84
2020-03-29 23:00:00 10.2 2 Norte 4 Nordeste 0 -- -- 77
2020-03-29 22:00:00 11.1 3 Norte 4 Nordeste 0 -- -- 78
2020-03-29 21:00:00 12.3 0 Calma 6 Oeste 0 -- -- 73
2020-03-29 20:00:00 15.4 0 Calma 8 Este 0 -- -- 63
2020-03-29 19:00:00 18.1 3 Este 15 Sudeste 0 -- -- 48
2020-03-29 18:00:00 19.2 5 Sudeste 17 Sudeste 0 -- -- 43
2020-03-29 17:00:00 21 9 Oeste 22 Oeste 0 -- -- 32
2020-03-29 16:00:00 20.4 12 Oeste 24 Oeste 0 -- -- 33
2020-03-29 15:00:00 20.5 14 Oeste 23 Oeste 0 -- -- 32
2020-03-29 14:00:00 20.4 8 Norte 22 Noroeste 0 -- -- 34
2020-03-29 13:00:00 20.2 9 Oeste 22 Sudoeste 0 -- -- 36
2020-03-29 12:00:00 19.8 10 Sudoeste 22 Oeste 0 -- -- 36
2020-03-29 11:00:00 17.1 5 Sudoeste 13 Sudoeste 0 -- -- 48
2020-03-29 10:00:00 13.9 0 Calma 4 Sudeste 0 -- -- 72
2020-03-29 09:00:00 11.8 0 Calma 4 Norte 0 -- -- 86
2020-03-29 08:00:00 6.7 0 Calma 3 Oeste 0 -- -- 95
2020-03-29 07:00:00 7.4 0 Calma 6 Noroeste 0 -- -- 94
2020-03-29 06:00:00 8 0 Calma 12 Sudoeste 0 -- -- 90
2020-03-29 05:00:00 7.9 4 Oeste 12 Sudoeste 0 -- -- 94
2020-03-29 03:00:00 9.4 0 Calma 3 Norte 0 -- -- 89
2020-03-29 01:00:00 10.9 0 Calma 13 Sudoeste 0 -- -- 83
2020-03-29 00:00:00 12.1 6 Sudoeste 14 Oeste 0 -- -- 76
2020-03-28 23:00:00 11.5 3 Oeste 12 Oeste 0 -- -- 84
2020-03-28 22:00:00 11 4 Oeste 6 Oeste 0 -- -- 89
2020-03-28 21:00:00 10.6 2 Oeste 5 Noroeste 0 -- -- 89
2020-03-28 20:00:00 12.7 0 Calma 10 Oeste 0 -- -- 78
2020-03-28 19:00:00 13.6 3 Oeste 10 Norte 0 -- -- 74
2020-03-28 18:00:00 14.3 3 Nordeste 12 Norte 0 -- -- 70
2020-03-28 17:00:00 15 2 Sudoeste 19 Noroeste 0 -- -- 71
2020-03-28 16:00:00 14.5 10 Norte 20 Norte 0 -- -- 71
2020-03-28 15:00:00 16.3 9 Norte 21 Norte 0 -- -- 62
2020-03-28 14:00:00 16 6 Nordeste 18 Nordeste 0 -- -- 60
2020-03-28 13:00:00 15.1 10 Norte 17 Nordeste 0 -- -- 68
2020-03-28 12:00:00 15 8 Nordeste 14 Nordeste 0 -- -- 69
2020-03-28 11:00:00 11.8 3 Oeste 9 Oeste 0.4 -- -- 91
2020-03-28 10:00:00 10.7 5 Oeste 13 Sudoeste 0.6 -- -- 95
2020-03-28 09:00:00 9.8 4 Oeste 18 Este 3.4 -- -- 95
2020-03-28 08:00:00 10.9 5 Oeste 22 Oeste 0.2 -- -- 85
2020-03-28 07:00:00 10.4 4 Oeste 10 Noroeste 0 -- -- 87
2020-03-28 06:00:00 9.6 3 Oeste 10 Sudoeste 0 -- -- 94
2020-03-28 05:00:00 9.6 5 Sudoeste 12 Sudoeste 0 -- -- 94
2020-03-28 04:00:00 9.4 6 Sudoeste 13 Nordeste 1.2 -- -- 93
2020-03-28 03:00:00 10.2 5 Oeste 8 Sudoeste 0 -- -- 81
2020-03-28 02:00:00 10.7 2 Sudoeste 5 Sur 0 -- -- 78
2020-03-28 01:00:00 10.6 0 Calma 8 Nordeste 0 -- -- 76
2020-03-28 00:00:00 10.8 3 Norte 13 Norte 0 -- -- 74
2020-03-27 23:00:00 10.9 3 Norte 17 Norte 0 -- -- 72
2020-03-27 22:00:00 10.8 6 Norte 23 Norte 0 -- -- 70
2020-03-27 21:00:00 10.8 9 Norte 19 Norte 0 -- -- 74
2020-03-27 20:00:00 11 6 Norte 20 Norte 0 -- -- 72
2020-03-27 19:00:00 10.5 6 Norte 23 Norte 0 -- -- 76
2020-03-27 18:00:00 13 6 Noroeste 21 Norte 0 -- -- 54
2020-03-27 17:00:00 13.4 11 Norte 26 Norte 0 -- -- 50
2020-03-27 16:00:00 15.1 9 Oeste 24 Norte 0 -- -- 48
2020-03-27 15:00:00 14.8 10 Norte 26 Noroeste 0 -- -- 46
2020-03-27 14:00:00 14.6 13 Norte 24 Norte 0 -- -- 49
2020-03-27 13:00:00 14.4 10 Noroeste 28 Norte 0.2 -- -- 50
2020-03-27 12:00:00 14.3 11 Nordeste 26 Norte 0 -- -- 42
2020-03-27 11:00:00 13.4 10 Nordeste 23 Norte 0 -- -- 48
2020-03-27 10:00:00 13 9 Norte 17 Norte 0 -- -- 58
2020-03-27 09:00:00 12.8 5 Norte 13 Norte 0 -- -- 59
2020-03-27 08:00:00 8 0 Calma 5 Oeste 0 -- -- 95
2020-03-27 07:00:00 3.9 2 Noroeste 5 Oeste 0 -- -- 98
2020-03-27 06:00:00 4 2 Noroeste 5 Oeste 0 -- -- 98
2020-03-27 05:00:00 4.4 2 Noroeste 4 Oeste 0 -- -- 98
2020-03-27 04:00:00 4.5 2 Norte 5 Norte 0 -- -- 97
2020-03-27 03:00:00 5 0 Calma 4 Norte 0 -- -- 96
2020-03-27 02:00:00 6.4 0 Calma 11 Este 0 -- -- 91
2020-03-27 01:00:00 7.3 0 Calma 13 Nordeste 0 -- -- 92
2020-03-27 00:00:00 7.8 0 Calma 11 Este 0 -- -- 97
2020-03-26 23:00:00 7.7 4 Sudoeste 14 Oeste 1.8 -- -- 96
2020-03-26 22:00:00 7.7 3 Norte 15 Nordeste 1.2 -- -- 95
2020-03-26 21:00:00 7.9 3 Este 13 Este 1.2 -- -- 95
2020-03-26 20:00:00 8 3 Oeste 17 Nordeste 4.8 -- -- 94
2020-03-26 19:00:00 8.9 5 Noroeste 11 Noroeste 0 -- -- 86
2020-03-26 18:00:00 9.5 3 Sudoeste 8 Oeste 0 -- -- 84
2020-03-26 17:00:00 9.1 2 Noroeste 11 Oeste 0 -- -- 84
2020-03-26 16:00:00 8.6 5 Sudoeste 16 Este 0.4 -- -- 92
2020-03-26 15:00:00 8.4 3 Sur 13 Sur 1.4 -- -- 94
2020-03-26 14:00:00 8.4 3 Sur 10 Nordeste 1.4 -- -- 93
2020-03-26 13:00:00 8.5 3 Sudeste 11 Este 1.8 -- -- 94
2020-03-26 12:00:00 8 3 Sudeste 21 Norte 3.6 -- -- 93
2020-03-26 11:00:00 8.9 14 Norte 25 Norte 0 -- -- 81
2020-03-26 10:00:00 11.2 4 Nordeste 9 Nordeste 0 -- -- 69
2020-03-26 09:00:00 9.8 3 Nordeste 6 Nordeste 0 -- -- 72
2020-03-26 08:00:00 8.4 2 Norte 5 Este 0 -- -- 73
2020-03-26 07:00:00 4.5 0 Calma 5 Oeste 0 -- -- 90
2020-03-26 06:00:00 3.8 2 Nordeste 5 Norte 0 -- -- 88
2020-03-26 05:00:00 4 0 Calma 3 Oeste 0 -- -- 89
2020-03-26 04:00:00 5.1 0 Calma 6 Norte 0 -- -- 86
2020-03-26 03:00:00 5.4 2 Norte 3 Nordeste 0 -- -- 85
2020-03-26 02:00:00 6 0 Calma 4 Nordeste 0 -- -- 83
2020-03-26 01:00:00 6.5 0 Calma 3 Este 0 -- -- 83
2020-03-26 00:00:00 6.5 0 Calma 2 Norte 0 -- -- 82
2020-03-25 23:00:00 5.8 0 Calma 4 Oeste 0 -- -- 81
2020-03-25 22:00:00 5.8 0 Calma 4 Norte 0 -- -- 81
2020-03-25 21:00:00 6.3 2 Oeste 4 Oeste 0 -- -- 79
2020-03-25 20:00:00 7.1 0 Calma 4 Oeste 0 -- -- 73
2020-03-25 19:00:00 10.2 0 Calma 13 Este 0 -- -- 58
2020-03-25 18:00:00 11.8 7 Este 17 Nordeste 0 -- -- 48
2020-03-25 17:00:00 11.9 7 Este 19 Sudeste 0 -- -- 43
2020-03-25 16:00:00 12.4 8 Este 19 Norte 0 -- -- 45
2020-03-25 15:00:00 12.7 7 Este 30 Nordeste 0 -- -- 44
2020-03-25 14:00:00 12.7 14 Este 36 Este 0 -- -- 50
2020-03-25 13:00:00 12.3 6 Nordeste 23 Norte 0 -- -- 45
2020-03-25 12:00:00 12.9 9 Nordeste 18 Nordeste 0 -- -- 42
2020-03-25 11:00:00 13.9 10 Norte 24 Norte 0 -- -- 46
2020-03-25 10:00:00 12.5 4 Oeste 11 Sudoeste 0 -- -- 57
2020-03-25 09:00:00 8.4 6 Oeste 20 Este 0 -- -- 75
2020-03-25 08:00:00 8.1 11 Este 34 Nordeste 0 -- -- 75
2020-03-25 07:00:00 10 4 Nordeste 13 Nordeste 0 -- -- 55
2020-03-25 06:00:00 10.1 6 Nordeste 26 Este 0 -- -- 55
2020-03-25 05:00:00 10.1 7 Nordeste 22 Nordeste 0 -- -- 56
2020-03-25 04:00:00 10.6 9 Este 23 Sudeste 0 -- -- 52
2020-03-25 03:00:00 10.6 5 Este 19 Este 0 -- -- 59
2020-03-25 02:00:00 10.5 9 Este 20 Nordeste 0 -- -- 68
2020-03-25 01:00:00 10.2 4 Este 18 Este 0 -- -- 70
2020-03-25 00:00:00 10.2 4 Nordeste 21 Este 0 -- -- 74
2020-03-24 23:00:00 11.5 8 Este 20 Nordeste 0 -- -- 62
2020-03-24 22:00:00 11.5 9 Este 27 Este 0 -- -- 63
2020-03-24 21:00:00 11.9 10 Este 30 Este 0 -- -- 61
2020-03-24 20:00:00 12 14 Este 37 Este 0 -- -- 59
2020-03-24 19:00:00 12.1 11 Este 34 Este 0 -- -- 60
2020-03-24 18:00:00 12.4 13 Este 36 Este 0 -- -- 57
2020-03-24 17:00:00 13.6 16 Este 41 Este 0 -- -- 51
2020-03-24 16:00:00 14 19 Este 39 Este 0 -- -- 53
2020-03-24 15:00:00 14 14 Este 33 Este 0 -- -- 63
2020-03-24 14:00:00 14.1 15 Este 36 Este 0 -- -- 68
2020-03-24 13:00:00 14.5 13 Este 33 Este 0 -- -- 70
2020-03-24 12:00:00 14 15 Este 33 Este 0 -- -- 71
2020-03-24 11:00:00 14.3 18 Este 37 Este 0 -- -- 72
2020-03-24 10:00:00 15 17 Este 37 Este 0 -- -- 70
2020-03-24 09:00:00 14.2 15 Este 36 Este 0 -- -- 69
2020-03-24 08:00:00 13.8 12 Este 30 Nordeste 0 -- -- 75
2020-03-24 07:00:00 13.4 13 Este 29 Este 0 -- -- 77
2020-03-24 06:00:00 13.4 11 Este 27 Nordeste 0 -- -- 80
2020-03-24 05:00:00 13.5 10 Este 26 Este 0 -- -- 80
2020-03-24 04:00:00 13.7 12 Este 31 Este 0 -- -- 81
2020-03-24 03:00:00 13.9 10 Nordeste 27 Este 0 -- -- 82
2020-03-24 02:00:00 14 14 Este 30 Este 0 -- -- 82
2020-03-24 01:00:00 14.3 9 Este 23 Nordeste 0 -- -- 86
2020-03-24 00:00:00 13.8 3 Nordeste 10 Nordeste 0 -- -- 87
2020-03-23 23:00:00 13.5 3 Este 11 Este 0 -- -- 86
2020-03-23 22:00:00 13.9 3 Este 19 Nordeste 0 -- -- 85
2020-03-23 21:00:00 14.2 7 Este 24 Este 0 -- -- 84
2020-03-23 20:00:00 14.2 6 Este 18 Este 0 -- -- 83
2020-03-23 19:00:00 14.8 8 Este 21 Este 0 -- -- 82
2020-03-23 18:00:00 15.2 9 Este 24 Este 0 -- -- 81
2020-03-23 17:00:00 15.8 13 Este 28 Este 0 -- -- 81
2020-03-23 16:00:00 16.3 10 Este 24 Este 0 -- -- 79
2020-03-23 15:00:00 18 12 Este 27 Este 0 -- -- 68
2020-03-23 14:00:00 18.1 10 Este 25 Este 0 -- -- 67
2020-03-23 13:00:00 17.2 12 Nordeste 23 Nordeste 0.2 -- -- 74
2020-03-23 12:00:00 18.7 7 Este 18 Sudeste 0 -- -- 62
2020-03-23 11:00:00 18.3 7 Sudeste 19 Sudeste 0 -- -- 65
2020-03-23 10:00:00 17.6 6 Sudeste 15 Sudeste 0 -- -- 75
2020-03-23 09:00:00 14.7 3 Este 7 Este 0 -- -- 95
2020-03-23 08:00:00 11.9 2 Nordeste 6 Sur 0 -- -- 100
2020-03-23 07:00:00 10 3 Sudeste 8 Sudoeste 0 -- -- 99
2020-03-23 06:00:00 10 0 Calma 5 Sudeste 0 -- -- 99
2020-03-23 05:00:00 9.8 2 Norte 8 Sudeste 0 -- -- 99
2020-03-23 04:00:00 9.9 0 Calma 5 Sudeste 0 -- -- 98
2020-03-23 03:00:00 10 0 Calma 8 Sudeste 0 -- -- 98
2020-03-23 02:00:00 11.2 3 Sudoeste 12 Oeste 0 -- -- 100
2020-03-23 01:00:00 11.6 4 Sudoeste 12 Sudoeste 0 -- -- 100
2020-03-23 00:00:00 11.1 2 Sudeste 6 Este 0 -- -- 97
2020-03-22 23:00:00 11.9 0 Calma 14 Sudoeste 0 -- -- 93
2020-03-22 22:00:00 14 6 Sudoeste 27 Oeste 0 -- -- 88
2020-03-22 21:00:00 12.7 3 Nordeste 8 Oeste 0 -- -- 96
2020-03-22 20:00:00 13 3 Oeste 5 Sudoeste 0 -- -- 95
2020-03-22 19:00:00 13.6 0 Calma 6 Sudeste 0 -- -- 90
2020-03-22 18:00:00 14.9 3 Este 6 Este 0 -- -- 84
2020-03-22 17:00:00 14.7 0 Calma 12 Sudeste 0 -- -- 84
2020-03-22 16:00:00 15.6 2 Sudeste 8 Este 0 -- -- 86
2020-03-22 15:00:00 14.2 0 Calma 8 Sudeste 0 -- -- 95
2020-03-22 14:00:00 13.6 3 Oeste 15 Oeste 3 -- -- 95
2020-03-22 13:00:00 14 6 Oeste 17 Sudoeste 0.4 -- -- 87
2020-03-22 12:00:00 14.1 3 Sudoeste 6 Sur 0.2 -- -- 95
2020-03-22 11:00:00 13.6 0 Calma 6 Sudoeste 0 -- -- 96
2020-03-22 10:00:00 13.3 3 Sudoeste 6 Sudoeste 3 -- -- 98
2020-03-22 09:00:00 12.9 0 Calma 15 Nordeste 5.8 -- -- 97
2020-03-22 08:00:00 13.3 11 Nordeste 19 Este 5.8 -- -- 96
2020-03-22 07:00:00 12.2 2 Oeste 6 Oeste 0 -- -- 96
2020-03-22 06:00:00 11.3 2 Norte 5 Norte 0 -- -- 97
2020-03-22 05:00:00 10.5 0 Calma 5 Oeste 0 -- -- 96
2020-03-22 04:00:00 10 2 Noroeste 6 Oeste 0 -- -- 96
2020-03-22 03:00:00 10.5 0 Calma 5 Norte 0 -- -- 95
2020-03-22 02:00:00 11.3 2 Nordeste 10 Oeste 0 -- -- 93
2020-03-22 01:00:00 12.1 0 Calma 2 Noroeste 0 -- -- 94
2020-03-22 00:00:00 12.6 0 Calma 4 Oeste 0 -- -- 93
2020-03-21 23:00:00 12.6 0 Calma 3 Sudoeste 0 -- -- 93
2020-03-21 22:00:00 12.1 0 Calma 2 Norte 0 -- -- 92
2020-03-21 21:00:00 13.8 0 Calma 8 Este 0 -- -- 86
2020-03-21 20:00:00 14.4 3 Este 12 Este 0 -- -- 86
2020-03-21 19:00:00 14.5 5 Este 15 Nordeste 0 -- -- 83
2020-03-21 18:00:00 15.3 8 Este 21 Este 0 -- -- 78
2020-03-21 17:00:00 16.4 6 Este 17 Este 0 -- -- 75
2020-03-21 16:00:00 16.5 7 Nordeste 18 Nordeste 0 -- -- 69
2020-03-21 15:00:00 16.2 9 Nordeste 17 Nordeste 0 -- -- 79
2020-03-21 14:00:00 16.7 8 Nordeste 21 Norte 0 -- -- 75
2020-03-21 13:00:00 18 6 Nordeste 19 Nordeste 0 -- -- 68
2020-03-21 12:00:00 17.7 10 Este 27 Nordeste 0 -- -- 65
2020-03-21 11:00:00 18.7 8 Este 20 Este 0 -- -- 64
2020-03-21 10:00:00 16.5 6 Nordeste 14 Nordeste 0 -- -- 81
2020-03-21 09:00:00 15.1 6 Este 14 Este 0 -- -- 84
2020-03-21 08:00:00 14.3 2 Este 12 Este 0 -- -- 87
2020-03-21 07:00:00 13.9 4 Nordeste 9 Este 0 -- -- 88
2020-03-21 06:00:00 13.8 4 Este 9 Este 0 -- -- 86
2020-03-21 05:00:00 13.6 0 Calma 9 Nordeste 0 -- -- 86
2020-03-21 04:00:00 13 0 Calma 6 Este 0 -- -- 85
2020-03-21 03:00:00 13.7 3 Este 21 Este 0 -- -- 82
2020-03-21 02:00:00 13.9 7 Nordeste 18 Este 0 -- -- 83
2020-03-21 01:00:00 13.7 7 Este 19 Este 0 -- -- 81
2020-03-21 00:00:00 13.2 3 Este 17 Este 0 -- -- 83
2020-03-20 23:00:00 13.5 4 Este 15 Este 0 -- -- 81
2020-03-20 22:00:00 13.8 6 Este 18 Nordeste 0 -- -- 80
2020-03-20 21:00:00 13.9 6 Este 17 Este 0 -- -- 78
2020-03-20 20:00:00 14.3 5 Este 19 Este 0 -- -- 77
2020-03-20 19:00:00 14.6 8 Este 24 Nordeste 0 -- -- 78
2020-03-20 18:00:00 15 9 Este 22 Este 0 -- -- 76
2020-03-20 17:00:00 15.3 9 Este 25 Este 0 -- -- 75
2020-03-20 16:00:00 15.7 13 Este 26 Nordeste 0 -- -- 72
2020-03-20 15:00:00 16.4 12 Este 28 Este 0 -- -- 67
2020-03-20 14:00:00 16.5 12 Este 29 Este 0 -- -- 68
2020-03-20 13:00:00 17.1 13 Este 28 Nordeste 0 -- -- 63
2020-03-20 12:00:00 17.3 12 Este 26 Nordeste 0 -- -- 58
2020-03-20 11:00:00 16.3 12 Este 27 Nordeste 0 -- -- 64
2020-03-20 10:00:00 16.2 8 Nordeste 19 Este 0 -- -- 70
2020-03-20 09:00:00 15.4 5 Este 13 Este 0 -- -- 77
2020-03-20 08:00:00 11.3 0 Calma 4 Norte 0 -- -- 97
2020-03-20 07:00:00 8.5 0 Calma 3 Norte 0 -- -- 98
2020-03-20 06:00:00 8.8 0 Calma 3 Nordeste 0 -- -- 97
2020-03-20 05:00:00 8.6 0 Calma 0 Calma 0 -- -- 97
2020-03-20 04:00:00 9.5 0 Calma 2 Nordeste 0 -- -- 97
2020-03-20 03:00:00 8.9 0 Calma 2 Norte 0 -- -- 96
2020-03-20 02:00:00 9.7 0 Calma 3 Sudoeste 0 -- -- 96
2020-03-20 01:00:00 10.5 0 Calma 3 Oeste 0 -- -- 95
2020-03-20 00:00:00 10.2 0 Calma 4 Nordeste 0 -- -- 93
2020-03-19 23:00:00 10.9 2 Norte 5 Sur 0 -- -- 91
2020-03-19 22:00:00 10.6 0 Calma 5 Oeste 0 -- -- 91
2020-03-19 21:00:00 11.4 0 Calma 4 Sudoeste 0 -- -- 88
2020-03-19 20:00:00 12.4 0 Calma 7 Este 0 -- -- 85
2020-03-19 19:00:00 13.3 3 Este 15 Nordeste 0 -- -- 79
2020-03-19 18:00:00 14.6 9 Nordeste 23 Nordeste 0 -- -- 74
2020-03-19 17:00:00 15.2 13 Este 22 Nordeste 0 -- -- 71
2020-03-19 16:00:00 16.5 11 Nordeste 24 Nordeste 0 -- -- 66
2020-03-19 15:00:00 17.3 10 Este 22 Sudeste 0 -- -- 63
2020-03-19 14:00:00 17.5 9 Este 24 Sudeste 0 -- -- 58
2020-03-19 13:00:00 17.2 9 Este 21 Este 0 -- -- 64
2020-03-19 12:00:00 17.1 9 Nordeste 21 Este 0 -- -- 64
2020-03-19 11:00:00 16.2 6 Este 14 Sudeste 0 -- -- 72
2020-03-19 10:00:00 15.4 3 Nordeste 10 Este 0 -- -- 76
2020-03-19 09:00:00 13.4 0 Calma 4 Nordeste 0 -- -- 96
2020-03-19 08:00:00 10.7 0 Calma 2 Norte 0 -- -- 99
2020-03-19 07:00:00 10.2 0 Calma 2 Nordeste 0 -- -- 98
2020-03-19 06:00:00 9.8 0 Calma 2 Nordeste 0 -- -- 98
2020-03-19 05:00:00 10.4 0 Calma 4 Oeste 0 -- -- 99
2020-03-19 04:00:00 9.1 0 Calma 3 Norte 0 -- -- 99
2020-03-19 03:00:00 9.3 0 Calma -- -- 0 -- -- 98
2020-03-19 02:00:00 9.8 0 Calma -- -- 0 -- -- 97
2020-03-19 01:00:00 10.5 0 Calma -- -- 0 -- -- 96
2020-03-19 00:00:00 11.9 0 Calma 5 Sur 0 -- -- 95
2020-03-18 23:00:00 12.4 0 Calma 6 Sudeste 0 -- -- 95
2020-03-18 22:00:00 13.3 0 Calma 5 Este 0 -- -- 93
2020-03-18 21:00:00 13.9 0 Calma 8 Nordeste 0 -- -- 92
2020-03-18 20:00:00 14.1 4 Este 13 Nordeste 0 -- -- 91
2020-03-18 19:00:00 14.2 4 Nordeste 14 Nordeste 0 -- -- 90
2020-03-18 18:00:00 14.7 7 Nordeste 15 Este 0 -- -- 88
2020-03-18 17:00:00 15.3 5 Este 13 Nordeste 0 -- -- 85
2020-03-18 16:00:00 16 6 Este 15 Este 0 -- -- 81
2020-03-18 15:00:00 16.9 5 Este 14 Sudeste 0 -- -- 74
2020-03-18 14:00:00 16.9 6 Este 14 Este 0 -- -- 74
2020-03-18 13:00:00 16.6 6 Este 17 Nordeste 0 -- -- 76
2020-03-18 12:00:00 15.8 10 Nordeste 20 Nordeste 0 -- -- 81
2020-03-18 11:00:00 15.9 8 Este 17 Este 0 -- -- 81
2020-03-18 10:00:00 15.4 7 Este 16 Sudeste 0 -- -- 83
2020-03-18 09:00:00 13.7 0 Calma 5 Sudoeste 0 -- -- 95
2020-03-18 08:00:00 12 0 Calma 3 Norte 0 -- -- 96
2020-03-18 07:00:00 11.4 0 Calma 9 Este 0 -- -- 95
2020-03-18 06:00:00 11.6 0 Calma 9 Nordeste 0 -- -- 94
2020-03-18 05:00:00 12.4 4 Nordeste 9 Este 0 -- -- 96
2020-03-18 04:00:00 11.5 0 Calma 10 Este 0 -- -- 95
2020-03-18 03:00:00 11.9 2 Nordeste 10 Nordeste 0 -- -- 93
2020-03-18 02:00:00 12.6 0 Calma 5 Sudeste 0 -- -- 92
2020-03-18 01:00:00 14 4 Nordeste 11 Este 0 -- -- 89
2020-03-18 00:00:00 13.2 0 Calma 14 Este 0 -- -- 82
2020-03-17 23:00:00 14.5 7 Este 18 Este 0 -- -- 82
2020-03-17 22:00:00 14.5 5 Este 18 Este 0 -- -- 86
2020-03-17 21:00:00 14.7 6 Este 15 Nordeste 0 -- -- 87
2020-03-17 20:00:00 14.7 5 Este 16 Este 0 -- -- 81
2020-03-17 19:00:00 15 6 Este 22 Sudeste 0 -- -- 80
2020-03-17 18:00:00 15.4 9 Este 24 Sudeste 0 -- -- 79
2020-03-17 17:00:00 16 6 Este 22 Este 0 -- -- 78
2020-03-17 16:00:00 16.3 8 Este 23 Este 0 -- -- 76
2020-03-17 15:00:00 16.5 8 Este 26 Este 0 -- -- 75
2020-03-17 14:00:00 16.6 9 Este 26 Sudeste 0 -- -- 77
2020-03-17 13:00:00 16.3 9 Este 33 Este 0 -- -- 79
2020-03-17 12:00:00 16.5 10 Este 29 Este 0 -- -- 80
2020-03-17 11:00:00 15.8 9 Este 31 Sudeste 0 -- -- 85
2020-03-17 10:00:00 15.6 8 Este 24 Sudeste 0 -- -- 86
2020-03-17 09:00:00 15.4 7 Este 18 Sudeste 0 -- -- 88
2020-03-17 08:00:00 15 6 Este 22 Este 0 -- -- 93
2020-03-17 07:00:00 15.1 9 Este 18 Nordeste 0 -- -- 92
2020-03-17 06:00:00 14.9 8 Este 21 Nordeste 0 -- -- 95
2020-03-17 05:00:00 14.9 0 Calma 10 Sudeste 0.2 -- -- 94
2020-03-17 04:00:00 15 0 Calma 6 Sudoeste 0 -- -- 93
2020-03-17 03:00:00 15 2 Sudeste 5 Sudeste 0 -- -- 93
2020-03-17 02:00:00 15 0 Calma 5 Sudeste 0 -- -- 92
2020-03-17 01:00:00 15.1 4 Sudeste 9 Sudeste 0 -- -- 91
2020-03-17 00:00:00 15.2 2 Sur 7 Sudeste 0 -- -- 90
2020-03-16 23:00:00 15.3 4 Este 11 Este 0 -- -- 90
2020-03-16 22:00:00 15.4 4 Este 13 Este 0 -- -- 88
2020-03-16 21:00:00 15.5 4 Este 9 Nordeste 0 -- -- 87
2020-03-16 20:00:00 15.7 3 Este 16 Este 0 -- -- 85
2020-03-16 19:00:00 16 6 Sudeste 16 Este 0 -- -- 84
2020-03-16 18:00:00 16.2 5 Este 17 Sudeste 0 -- -- 84
2020-03-16 17:00:00 17.2 8 Sudeste 28 Sur 0 -- -- 78
2020-03-16 16:00:00 17.4 10 Sudeste 31 Sudeste 0 -- -- 77
2020-03-16 15:00:00 16.8 10 Sudeste 22 Sudeste 0 -- -- 81
2020-03-16 14:00:00 16.4 9 Sudeste 28 Este 0 -- -- 83
2020-03-16 13:00:00 16.4 9 Sudeste 24 Este 0 -- -- 82
2020-03-16 12:00:00 16 7 Sudeste 28 Sudeste 0 -- -- 87
2020-03-16 11:00:00 15.7 13 Este 32 Este 0 -- -- 85
2020-03-16 10:00:00 15.5 13 Este 33 Sudeste 0 -- -- 84
2020-03-16 09:00:00 14.7 6 Sudeste 18 Sur 0.2 -- -- 88
2020-03-16 08:00:00 14.1 9 Sur 18 Sur 0.2 -- -- 88
2020-03-16 07:00:00 14.2 8 Sudeste 18 Sudeste 0 -- -- 83
2020-03-16 06:00:00 12.4 3 Sur 10 Sudeste 0 -- -- 92
2020-03-16 05:00:00 10.3 2 Nordeste 3 Nordeste 0 -- -- 95
2020-03-16 04:00:00 10.4 2 Norte 4 Oeste 0 -- -- 93
2020-03-16 03:00:00 10.3 0 Calma 4 Sur 0 -- -- 92
2020-03-16 02:00:00 11.3 2 Noroeste 14 Sudeste 0 -- -- 87
2020-03-16 01:00:00 11.5 0 Calma 9 Oeste 0 -- -- 86
2020-03-16 00:00:00 13.3 4 Noroeste 15 Este 0 -- -- 81
2020-03-15 23:00:00 13.4 6 Noroeste 17 Oeste 0 -- -- 80
2020-03-15 22:00:00 13.2 3 Norte 18 Sudoeste 0 -- -- 78
2020-03-15 21:00:00 13.4 3 Sur 15 Sudeste 0 -- -- 75
2020-03-15 20:00:00 14.3 3 Nordeste 17 Sudeste 0 -- -- 71
2020-03-15 19:00:00 14.8 0 Calma 14 Sudeste 0 -- -- 73
2020-03-15 18:00:00 16.8 5 Este 20 Sudeste 0 -- -- 61
2020-03-15 17:00:00 18.1 8 Este 18 Nordeste 0 -- -- 61
2020-03-15 16:00:00 17 11 Nordeste 21 Nordeste 0 -- -- 71
2020-03-15 15:00:00 18.6 6 Este 20 Este 0 -- -- 61
2020-03-15 14:00:00 19.4 6 Este 21 Nordeste 0 -- -- 57
2020-03-15 13:00:00 18 14 Nordeste 24 Nordeste 0 -- -- 65
2020-03-15 12:00:00 19.3 8 Sudeste 20 Sudeste 0 -- -- 56
2020-03-15 11:00:00 17.6 7 Este 16 Sudeste 0 -- -- 64
2020-03-15 10:00:00 17.6 6 Sudeste 13 Sudeste 0 -- -- 65
2020-03-15 09:00:00 16.5 0 Calma 2 Sudeste 0 -- -- 74
2020-03-15 08:00:00 9.4 0 Calma 4 Norte 0 -- -- 99
2020-03-15 07:00:00 7.7 2 Norte 4 Noroeste 0 -- -- 98
2020-03-15 06:00:00 7.5 2 Norte 4 Norte 0 -- -- 98
2020-03-15 05:00:00 7.5 2 Norte 3 Norte 0 -- -- 98
2020-03-15 04:00:00 7.4 0 Calma 3 Nordeste 0 -- -- 98
2020-03-15 03:00:00 7.5 0 Calma 3 Norte 0 -- -- 97
2020-03-15 02:00:00 7.9 0 Calma 3 Norte 0 -- -- 96
2020-03-15 01:00:00 8.5 2 Nordeste 3 Norte 0 -- -- 96
2020-03-15 00:00:00 8.9 0 Calma 2 Sudeste 0 -- -- 95
2020-03-14 23:00:00 9.7 2 Norte 4 Norte 0 -- -- 94
2020-03-14 22:00:00 10.4 2 Norte 3 Norte 0 -- -- 92
2020-03-14 21:00:00 10.9 0 Calma 2 Sur 0 -- -- 89
2020-03-14 20:00:00 12.3 0 Calma 6 Este 0 -- -- 84
2020-03-14 19:00:00 13.7 4 Nordeste 15 Sudeste 0 -- -- 79
2020-03-14 18:00:00 16.6 6 Sudeste 14 Sudeste 0 -- -- 70
2020-03-14 17:00:00 17.9 5 Oeste 15 Noroeste 0 -- -- 63
2020-03-14 16:00:00 19 5 Sudoeste 15 Sudeste 0 -- -- 61
2020-03-14 15:00:00 18.5 6 Este 14 Sudeste 0 -- -- 55
2020-03-14 14:00:00 19.5 6 Este 16 Sur 0 -- -- 50
2020-03-14 13:00:00 18.4 6 Este 15 Este 0 -- -- 52
2020-03-14 12:00:00 17.4 6 Sudeste 19 Sudeste 0 -- -- 56
2020-03-14 11:00:00 17.8 5 Este 15 Este 0 -- -- 56
2020-03-14 10:00:00 15.9 6 Nordeste 16 Nordeste 0 -- -- 61
2020-03-14 09:00:00 13.7 0 Calma 5 Norte 0 -- -- 95
2020-03-14 08:00:00 11 0 Calma 4 Nordeste 0 -- -- 97
2020-03-14 07:00:00 9.9 0 Calma 3 Norte 0 -- -- 96
2020-03-14 06:00:00 10.4 2 Noroeste 5 Oeste 0 -- -- 95
2020-03-14 05:00:00 9.9 0 Calma 4 Norte 0 -- -- 94
2020-03-14 04:00:00 11.2 3 Noroeste 8 Oeste 0.4 -- -- 90
2020-03-14 03:00:00 10.7 0 Calma 5 Nordeste 0.4 -- -- 86
2020-03-14 02:00:00 11.6 0 Calma 4 Noroeste 0 -- -- 66
2020-03-14 01:00:00 12.1 2 Noroeste 9 Oeste 0 -- -- 60
2020-03-14 00:00:00 12.2 2 Noroeste 7 Nordeste 0 -- -- 61
2020-03-13 23:00:00 11.3 3 Oeste 7 Oeste 0 -- -- 67
2020-03-13 22:00:00 11 4 Oeste 8 Oeste 0 -- -- 81
2020-03-13 21:00:00 11.3 0 Calma 3 Norte 0 -- -- 87
2020-03-13 20:00:00 12.7 2 Norte 9 Norte 0 -- -- 81
2020-03-13 19:00:00 13.5 6 Norte 14 Norte 0 -- -- 78
2020-03-13 18:00:00 14.7 8 Norte 18 Norte 0 -- -- 73
2020-03-13 17:00:00 15.9 11 Norte 20 Norte 0 -- -- 70
2020-03-13 16:00:00 16.7 11 Norte 20 Norte 0 -- -- 68
2020-03-13 15:00:00 17.6 14 Norte 23 Norte 0 -- -- 65
2020-03-13 14:00:00 18.5 10 Norte 26 Norte 0 -- -- 63
2020-03-13 13:00:00 19.2 9 Sudeste 21 Este 0 -- -- 61
2020-03-13 12:00:00 18.9 7 Este 20 Sudeste 0 -- -- 65
2020-03-13 11:00:00 18.8 5 Nordeste 21 Nordeste 0 -- -- 63
2020-03-13 10:00:00 17.9 8 Este 15 Este 0 -- -- 69
2020-03-13 09:00:00 16.1 2 Este 8 Sudeste 0 -- -- 77
2020-03-13 08:00:00 11.1 0 Calma 6 Nordeste 0 -- -- 94
2020-03-13 07:00:00 10.1 0 Calma 4 Nordeste 0 -- -- 92
2020-03-13 06:00:00 11.9 0 Calma 16 Este 0 -- -- 83
2020-03-13 05:00:00 10.1 0 Calma 5 Nordeste 0 -- -- 92
2020-03-13 04:00:00 10.7 2 Noroeste 8 Oeste 0 -- -- 88
2020-03-13 03:00:00 9.4 2 Oeste 4 Oeste 0 -- -- 84
2020-03-13 02:00:00 9.6 0 Calma 2 Norte 0 -- -- 82
2020-03-13 01:00:00 10 0 Calma 2 Norte 0 -- -- 81
2020-03-13 00:00:00 10.3 0 Calma 4 Oeste 0 -- -- 81
2020-03-12 23:00:00 11.2 0 Calma 2 Norte 0 -- -- 76
2020-03-12 22:00:00 12 0 Calma 3 Norte 0 -- -- 73
2020-03-12 21:00:00 13.2 0 Calma 4 Norte 0 -- -- 69
2020-03-12 20:00:00 14.9 0 Calma 4 Norte 0 -- -- 71
2020-03-12 19:00:00 17.4 3 Norte 9 Norte 0 -- -- 50
2020-03-12 18:00:00 20.2 7 Norte 15 Nordeste 0 -- -- 38
2020-03-12 17:00:00 21.9 8 Nordeste 14 Sudeste 0 -- -- 35
2020-03-12 16:00:00 23.6 5 Nordeste 16 Norte 0 -- -- 37
2020-03-12 15:00:00 24.7 9 Norte 20 Nordeste 0 -- -- 31
2020-03-12 14:00:00 25.4 13 Norte 20 Norte 0 -- -- 32
2020-03-12 13:00:00 25.9 7 Nordeste 13 Nordeste 0 -- -- 35
2020-03-12 12:00:00 23.5 4 Oeste 14 Nordeste 0 -- -- 45
2020-03-12 11:00:00 20.6 7 Nordeste 12 Nordeste 0 -- -- 56
2020-03-12 10:00:00 19.1 4 Sudeste 7 Este 0 -- -- 65
2020-03-12 09:00:00 15.9 0 Calma 6 Este 0 -- -- 83
2020-03-12 08:00:00 8.5 0 Calma 4 Nordeste 0 -- -- 98
2020-03-12 07:00:00 7.8 0 Calma 4 Norte 0 -- -- 97
2020-03-12 06:00:00 7.3 0 Calma 2 Norte 0 -- -- 97
2020-03-12 05:00:00 7.6 0 Calma 2 Sudeste 0 -- -- 97
2020-03-12 04:00:00 8.1 0 Calma 2 Norte 0 -- -- 97
2020-03-12 03:00:00 8.3 0 Calma 2 Nordeste 0 -- -- 96
2020-03-12 02:00:00 8.7 0 Calma 3 Nordeste 0 -- -- 95
2020-03-12 01:00:00 9.6 0 Calma 3 Nordeste 0 -- -- 95
2020-03-12 00:00:00 9.9 0 Calma 2 Nordeste 0 -- -- 94
2020-03-11 23:00:00 10.6 0 Calma 3 Sudeste 0 -- -- 93
2020-03-11 22:00:00 11.3 0 Calma 3 Norte 0 -- -- 92
2020-03-11 21:00:00 12.2 0 Calma 2 Norte 0 -- -- 88
2020-03-11 20:00:00 13.2 0 Calma 2 Sudoeste 0 -- -- 84
2020-03-11 19:00:00 15.4 3 Nordeste 12 Sudeste 0 -- -- 78
2020-03-11 18:00:00 18 5 Este 10 Sudeste 0 -- -- 71
2020-03-11 17:00:00 19.9 3 Sudeste 13 Sudeste 0 -- -- 65
2020-03-11 16:00:00 21.5 4 Este 17 Norte 0 -- -- 59
2020-03-11 15:00:00 22.4 11 Norte 14 Norte 0 -- -- 50
2020-03-11 14:00:00 21.7 6 Este 13 Este 0 -- -- 54
2020-03-11 13:00:00 21.5 5 Este 14 Sudeste 0 -- -- 54
2020-03-11 12:00:00 19.8 5 Nordeste 15 Este 0 -- -- 58
2020-03-11 11:00:00 18.8 4 Este 12 Este 0 -- -- 58
2020-03-11 10:00:00 18 3 Norte 6 Nordeste 0 -- -- 62
2020-03-11 09:00:00 16.5 3 Norte 5 Norte 0 -- -- 69
2020-03-11 08:00:00 8 0 Calma 3 Oeste 0 -- -- 91
2020-03-11 07:00:00 6.5 0 Calma 2 Noroeste 0 -- -- 90
2020-03-11 06:00:00 6.8 0 Calma 3 Nordeste 0 -- -- 90
2020-03-11 05:00:00 7.1 0 Calma 3 Nordeste 0 -- -- 91
2020-03-11 04:00:00 7.5 0 Calma 3 Norte 0 -- -- 91
2020-03-11 03:00:00 8 0 Calma 5 Oeste 0 -- -- 90
2020-03-11 02:00:00 8.8 0 Calma 3 Este 0 -- -- 91
2020-03-11 01:00:00 9 0 Calma 4 Norte 0 -- -- 90
2020-03-11 00:00:00 9.5 0 Calma 4 Nordeste 0 -- -- 89
2020-03-10 23:00:00 10 0 Calma 3 Oeste 0 -- -- 87
2020-03-10 22:00:00 11.2 0 Calma 4 Sudeste 0 -- -- 86
2020-03-10 21:00:00 12.2 0 Calma 5 Norte 0 -- -- 80
2020-03-10 20:00:00 13.5 0 Calma 5 Nordeste 0 -- -- 75
2020-03-10 19:00:00 15.1 2 Nordeste 12 Este 0 -- -- 68
2020-03-10 18:00:00 17.2 4 Sudoeste 19 Sudoeste 0 -- -- 60
2020-03-10 17:00:00 18.6 8 Sudoeste 15 Sur 0 -- -- 50
2020-03-10 16:00:00 19.9 8 Noroeste 18 Noroeste 0 -- -- 34
2020-03-10 15:00:00 20.7 6 Este 21 Oeste 0 -- -- 33
2020-03-10 14:00:00 20.3 8 Noroeste 24 Oeste 0 -- -- 34
2020-03-10 13:00:00 18.3 9 Noroeste 22 Oeste 0 -- -- 40
2020-03-10 12:00:00 18.5 5 Oeste 21 Oeste 0 -- -- 43
2020-03-10 11:00:00 16.7 6 Sudeste 17 Sudeste 0 -- -- 61
2020-03-10 10:00:00 15.3 3 Oeste 6 Oeste 0 -- -- 63
2020-03-10 09:00:00 13.8 0 Calma 5 Sur 0 -- -- 70
2020-03-10 08:00:00 12 0 Calma 9 Este 0 -- -- 78
2020-03-10 07:00:00 11.1 0 Calma 10 Este 0 -- -- 77
2020-03-10 06:00:00 12.2 3 Este 15 Sudeste 0 -- -- 73
2020-03-10 05:00:00 12.5 5 Este 19 Este 0 -- -- 72
2020-03-10 04:00:00 12 4 Nordeste 22 Sudeste 0 -- -- 71
2020-03-10 03:00:00 12.2 4 Nordeste 18 Sudoeste 0 -- -- 67
2020-03-10 02:00:00 12.5 3 Sudeste 18 Este 0 -- -- 65
2020-03-10 01:00:00 12.6 4 Este 16 Este 0 -- -- 67
2020-03-10 00:00:00 11.6 4 Norte 15 Norte 0 -- -- 81
2020-03-09 23:00:00 11.5 4 Norte 8 Sur 0 -- -- 81
2020-03-09 22:00:00 11.3 0 Calma 4 Nordeste 0 -- -- 82
2020-03-09 21:00:00 10.2 3 Sudoeste 6 Sudoeste 0 -- -- 85
2020-03-09 20:00:00 10.5 0 Calma 5 Oeste 0 -- -- 81
2020-03-09 19:00:00 12.3 3 Este 12 Este 0 -- -- 72
2020-03-09 18:00:00 15.6 5 Noroeste 22 Oeste 0 -- -- 46
2020-03-09 17:00:00 16.3 9 Oeste 28 Noroeste 0 -- -- 45
2020-03-09 16:00:00 16.6 10 Oeste 22 Oeste 0 -- -- 51
2020-03-09 15:00:00 16.7 7 Norte 12 Nordeste 0 -- -- 56
2020-03-09 14:00:00 15.7 6 Sudeste 16 Sur 0 -- -- 64
2020-03-09 13:00:00 13.8 5 Norte 19 Este 0 -- -- 73
2020-03-09 12:00:00 13.9 3 Nordeste 28 Noroeste 0 -- -- 72
2020-03-09 11:00:00 15.1 10 Noroeste 43 Noroeste 0 -- -- 61
2020-03-09 10:00:00 15.8 15 Oeste 35 Oeste 0 -- -- 63
2020-03-09 09:00:00 15.3 20 Oeste 48 Oeste 0 -- -- 61
2020-03-09 08:00:00 15.3 22 Oeste 42 Oeste 0 -- -- 58
2020-03-09 07:00:00 14.6 15 Oeste 30 Oeste 0 -- -- 63
2020-03-09 06:00:00 7.6 3 Norte 8 Oeste 0 -- -- 85
2020-03-09 05:00:00 6.9 0 Calma 4 Noroeste 0 -- -- 87
2020-03-09 04:00:00 7.5 0 Calma 3 Nordeste 0 -- -- 84
2020-03-09 03:00:00 7.6 0 Calma 3 Nordeste 0 -- -- 85
2020-03-09 02:00:00 7.8 0 Calma 2 Nordeste 0 -- -- 83
2020-03-09 01:00:00 8.7 0 Calma 2 Nordeste 0 -- -- 80
2020-03-09 00:00:00 9.3 0 Calma 4 Oeste 0 -- -- 77
2020-03-08 23:00:00 9.6 0 Calma 3 Nordeste 0 -- -- 76
2020-03-08 22:00:00 10.5 0 Calma 3 Nordeste 0 -- -- 73
2020-03-08 21:00:00 10.3 0 Calma 3 Nordeste 0 -- -- 76
2020-03-08 20:00:00 11.8 0 Calma 8 Este 0 -- -- 72
2020-03-08 19:00:00 14 3 Este 13 Sudeste 0 -- -- 64
2020-03-08 18:00:00 16.8 7 Sudeste 20 Noroeste 0 -- -- 52
2020-03-08 17:00:00 19.3 9 Noroeste 29 Noroeste 0 -- -- 35
2020-03-08 16:00:00 19 12 Noroeste 29 Noroeste 0 -- -- 35
2020-03-08 15:00:00 19.8 11 Noroeste 24 Oeste 0 -- -- 33
2020-03-08 14:00:00 19.3 13 Noroeste 27 Oeste 0 -- -- 35
2020-03-08 13:00:00 18.7 10 Noroeste 23 Noroeste 0 -- -- 41
2020-03-08 12:00:00 19.5 5 Sur 12 Sur 0 -- -- 39
2020-03-08 11:00:00 17.4 6 Sudeste 18 Oeste 0 -- -- 54
2020-03-08 10:00:00 17.5 5 Noroeste 12 Oeste 0 -- -- 47
2020-03-08 09:00:00 14.5 0 Calma 5 Sur 0 -- -- 54
2020-03-08 08:00:00 7.1 0 Calma 4 Nordeste 0 -- -- 82
2020-03-08 07:00:00 7 0 Calma 4 Oeste 0 -- -- 78
2020-03-08 06:00:00 7.6 0 Calma 6 Sudeste 0 -- -- 75
2020-03-08 05:00:00 8.9 0 Calma 3 Oeste 0 -- -- 71
2020-03-08 04:00:00 9.1 0 Calma 4 Sur 0 -- -- 69
2020-03-08 03:00:00 8.9 0 Calma 3 Nordeste 0 -- -- 67
2020-03-08 02:00:00 8.2 2 Norte 4 Sudoeste 0 -- -- 69
2020-03-08 01:00:00 6.5 0 Calma 3 Oeste 0 -- -- 69
2020-03-08 00:00:00 6.4 0 Calma 5 Oeste 0 -- -- 64
2020-03-07 23:00:00 6.8 0 Calma 6 Sudeste 0 -- -- 60
2020-03-07 22:00:00 7.1 0 Calma 4 Oeste 0 -- -- 58
2020-03-07 21:00:00 8.1 0 Calma 4 Norte 0 -- -- 52
2020-03-07 20:00:00 11.3 3 Sudoeste 12 Oeste 0 -- -- 39
2020-03-07 19:00:00 13.4 5 Oeste 18 Oeste 0 -- -- 31
2020-03-07 18:00:00 15 9 Oeste 28 Oeste 0 -- -- 27
2020-03-07 17:00:00 15.7 8 Noroeste 27 Oeste 0 -- -- 26
2020-03-07 16:00:00 15 9 Noroeste 24 Oeste 0 -- -- 39
2020-03-07 15:00:00 15.1 11 Noroeste 27 Noroeste 0 -- -- 48
2020-03-07 14:00:00 14.8 12 Noroeste 36 Noroeste 0 -- -- 50
2020-03-07 13:00:00 14.2 17 Noroeste 36 Oeste 0 -- -- 51
2020-03-07 12:00:00 14 15 Noroeste 32 Noroeste 0 -- -- 52
2020-03-07 11:00:00 13.6 13 Noroeste 30 Oeste 0 -- -- 52
2020-03-07 10:00:00 12.9 13 Noroeste 29 Oeste 0 -- -- 56
2020-03-07 09:00:00 12.1 11 Oeste 27 Oeste 0 -- -- 59
2020-03-07 08:00:00 11.5 6 Noroeste 21 Norte 0 -- -- 61
2020-03-07 07:00:00 11.1 9 Noroeste 28 Oeste 0 -- -- 62
2020-03-07 06:00:00 11.1 10 Noroeste 40 Oeste 0 -- -- 61
2020-03-07 05:00:00 11.2 19 Oeste 49 Noroeste 0 -- -- 61
2020-03-07 04:00:00 11.3 17 Oeste 42 Oeste 0 -- -- 58
2020-03-07 03:00:00 11.2 18 Oeste 51 Oeste 0 -- -- 58
2020-03-07 02:00:00 11.3 17 Noroeste 54 Oeste 0 -- -- 56
2020-03-07 01:00:00 11.3 18 Oeste 56 Oeste 0 -- -- 57
2020-03-07 00:00:00 11.5 19 Noroeste 59 Oeste 0 -- -- 56
2020-03-06 23:00:00 11.6 19 Noroeste 52 Oeste 0 -- -- 54
2020-03-06 22:00:00 12.1 19 Oeste 55 Sudoeste 0 -- -- 56
2020-03-06 21:00:00 12.6 31 Oeste 61 Oeste 0 -- -- 50
2020-03-06 20:00:00 13.3 25 Oeste 63 Oeste 0 -- -- 48
2020-03-06 19:00:00 13.5 31 Oeste 61 Oeste 0 -- -- 44
2020-03-06 18:00:00 13.4 29 Oeste 57 Oeste 0 -- -- 45
2020-03-06 17:00:00 14 22 Oeste 51 Oeste 0 -- -- 43
2020-03-06 16:00:00 14 32 Oeste 67 Oeste 0 -- -- 50
2020-03-06 15:00:00 15.5 31 Oeste 66 Oeste 0 -- -- 43
2020-03-06 14:00:00 15.8 25 Oeste 61 Oeste 0 -- -- 45
2020-03-06 13:00:00 14.5 25 Oeste 60 Oeste 0 -- -- 47
2020-03-06 12:00:00 14.8 23 Oeste 68 Oeste 0 -- -- 48
2020-03-06 11:00:00 14.8 27 Oeste 58 Oeste 0 -- -- 44
2020-03-06 10:00:00 15.7 22 Noroeste 46 Oeste 0 -- -- 48
2020-03-06 09:00:00 15.2 21 Noroeste 40 Oeste 0 -- -- 52
2020-03-06 08:00:00 13.7 23 Oeste 48 Oeste 0 -- -- 53
2020-03-06 07:00:00 13.7 24 Oeste 50 Oeste 0 -- -- 51
2020-03-06 06:00:00 13.3 18 Oeste 37 Oeste 0 -- -- 57
2020-03-06 05:00:00 14 13 Oeste 29 Oeste 0 -- -- 54
2020-03-06 04:00:00 14.3 18 Noroeste 39 Noroeste 0 -- -- 51
2020-03-06 03:00:00 14.7 20 Oeste 55 Noroeste 0 -- -- 48
2020-03-06 02:00:00 15.5 31 Noroeste 61 Oeste 0 -- -- 40
2020-03-06 01:00:00 16.5 33 Noroeste 62 Oeste 0 -- -- 38
2020-03-06 00:00:00 16.7 25 Oeste 56 Oeste 0 -- -- 40
2020-03-05 23:00:00 17.4 17 Oeste 44 Oeste 0 -- -- 42
2020-03-05 22:00:00 17.8 21 Oeste 45 Noroeste 0 -- -- 44
2020-03-05 21:00:00 18.7 18 Oeste 43 Oeste 0 -- -- 42
2020-03-05 20:00:00 18.6 11 Oeste 44 Oeste 0 -- -- 42
2020-03-05 19:00:00 18.7 22 Oeste 61 Oeste 0 -- -- 58
2020-03-05 18:00:00 20 18 Sudoeste 49 Sudoeste 0 -- -- 49
2020-03-05 17:00:00 20.9 18 Sudoeste 48 Oeste 0 -- -- 46
2020-03-05 16:00:00 21.1 25 Sudoeste 60 Sudoeste 0 -- -- 43
2020-03-05 15:00:00 24 8 Oeste 21 Oeste 0 -- -- 36
2020-03-05 14:00:00 21.9 10 Oeste 25 Sudoeste 0 -- -- 42
2020-03-05 13:00:00 23 14 Sudoeste 35 Sur 0 -- -- 42
2020-03-05 12:00:00 22.1 4 Oeste 12 Sur 0 -- -- 49
2020-03-05 11:00:00 20.8 5 Sudoeste 12 Sudeste 0 -- -- 61
2020-03-05 10:00:00 19.1 2 Noroeste 5 Norte 0 -- -- 66
2020-03-05 09:00:00 15.4 0 Calma 5 Oeste 0 -- -- 86
2020-03-05 08:00:00 11 0 Calma 7 Noroeste 0 -- -- 98
2020-03-05 07:00:00 8.5 0 Calma 4 Norte 0 -- -- 98
2020-03-05 06:00:00 9.2 0 Calma 4 Nordeste 0 -- -- 97
2020-03-05 05:00:00 9.5 0 Calma 3 Noroeste 0 -- -- 96
2020-03-05 04:00:00 9.9 0 Calma 3 Norte 0 -- -- 96
2020-03-05 03:00:00 9.8 0 Calma 3 Oeste 0 -- -- 96
2020-03-05 02:00:00 10 0 Calma 4 Nordeste 0 -- -- 93
2020-03-05 01:00:00 11 0 Calma 5 Oeste 0 -- -- 93
2020-03-05 00:00:00 11.1 2 Oeste 9 Sudeste 0 -- -- 92
2020-03-04 23:00:00 11.8 0 Calma 9 Sudeste 0 -- -- 90
2020-03-04 22:00:00 12.2 0 Calma 4 Norte 0 -- -- 89
2020-03-04 21:00:00 12.4 0 Calma 3 Sudeste 0 -- -- 87
2020-03-04 20:00:00 13.5 0 Calma 5 Sudoeste 0 -- -- 83
2020-03-04 19:00:00 16 0 Calma 9 Este 0 -- -- 71
2020-03-04 18:00:00 19.5 4 Oeste 17 Sudoeste 0 -- -- 58
2020-03-04 17:00:00 20 3 Este 21 Oeste 0 -- -- 53
2020-03-04 16:00:00 19.5 4 Nordeste 18 Sur 0 -- -- 57
2020-03-04 15:00:00 19 5 Sudoeste 18 Sudoeste 0 -- -- 61
2020-03-04 14:00:00 19.6 9 Sudoeste 25 Sudoeste 0 -- -- 59
2020-03-04 13:00:00 18.3 12 Sudoeste 22 Sur 0 -- -- 59
2020-03-04 12:00:00 18.4 13 Sudoeste 26 Sudoeste 0 -- -- 54
2020-03-04 11:00:00 16.8 13 Sudoeste 29 Sudoeste 0 -- -- 56
2020-03-04 10:00:00 15 6 Sudoeste 16 Sur 0 -- -- 61
2020-03-04 09:00:00 14.1 6 Sudoeste 14 Este 0 -- -- 67
2020-03-04 08:00:00 9.9 4 Sur 18 Sur 0 -- -- 89
2020-03-04 07:00:00 7.1 0 Calma 5 Oeste 0 -- -- 94
2020-03-04 06:00:00 7.6 0 Calma 3 Noroeste 0 -- -- 92
2020-03-04 05:00:00 8.7 2 Noroeste 4 Oeste 0 -- -- 89
2020-03-04 04:00:00 10.1 0 Calma 6 Oeste 0 -- -- 88
2020-03-04 03:00:00 9.6 0 Calma 4 Sudoeste 0 -- -- 88
2020-03-04 02:00:00 11.4 0 Calma 12 Nordeste 0 -- -- 80
2020-03-04 01:00:00 13.3 7 Nordeste 41 Oeste 0 -- -- 73
2020-03-04 00:00:00 15.7 9 Norte 66 Oeste 0 -- -- 63